sensor_id;sensor_type;location;lat;lon;timestamp;P1;durP1;ratioP1;P2;durP2;ratioP2
15202;SDS011;7702;51.046;5.184;2022-12-18T00:01:01;45.13;;;23.13;;
15202;SDS011;7702;51.046;5.184;2022-12-18T00:03:31;46.40;;;22.53;;
15202;SDS011;7702;51.046;5.184;2022-12-18T00:05:58;44.83;;;22.00;;
15202;SDS011;7702;51.046;5.184;2022-12-18T00:08:24;42.53;;;22.97;;
15202;SDS011;7702;51.046;5.184;2022-12-18T00:10:50;49.23;;;23.03;;
15202;SDS011;7702;51.046;5.184;2022-12-18T00:13:16;39.73;;;21.87;;
15202;SDS011;7702;51.046;5.184;2022-12-18T00:15:42;55.13;;;24.90;;
15202;SDS011;7702;51.046;5.184;2022-12-18T00:18:07;46.40;;;22.80;;
15202;SDS011;7702;51.046;5.184;2022-12-18T00:20:37;41.47;;;22.30;;
15202;SDS011;7702;51.046;5.184;2022-12-18T00:23:04;44.63;;;22.53;;
15202;SDS011;7702;51.046;5.184;2022-12-18T00:25:34;49.67;;;24.00;;
15202;SDS011;7702;51.046;5.184;2022-12-18T00:28:01;47.27;;;22.80;;
15202;SDS011;7702;51.046;5.184;2022-12-18T00:30:29;57.70;;;25.87;;
15202;SDS011;7702;51.046;5.184;2022-12-18T00:32:55;47.20;;;24.13;;
15202;SDS011;7702;51.046;5.184;2022-12-18T00:35:22;41.60;;;20.97;;
15202;SDS011;7702;51.046;5.184;2022-12-18T00:37:47;38.67;;;21.27;;
15202;SDS011;7702;51.046;5.184;2022-12-18T00:40:13;43.70;;;22.83;;
15202;SDS011;7702;51.046;5.184;2022-12-18T00:42:39;44.37;;;22.90;;
15202;SDS011;7702;51.046;5.184;2022-12-18T00:45:23;42.47;;;21.33;;
15202;SDS011;7702;51.046;5.184;2022-12-18T00:47:54;42.67;;;20.73;;
15202;SDS011;7702;51.046;5.184;2022-12-18T00:50:21;37.50;;;19.87;;
15202;SDS011;7702;51.046;5.184;2022-12-18T00:52:47;47.73;;;22.30;;
15202;SDS011;7702;51.046;5.184;2022-12-18T00:55:13;45.67;;;21.77;;
15202;SDS011;7702;51.046;5.184;2022-12-18T00:57:40;41.80;;;19.80;;
15202;SDS011;7702;51.046;5.184;2022-12-18T01:00:06;39.43;;;18.97;;
15202;SDS011;7702;51.046;5.184;2022-12-18T01:02:35;43.73;;;21.13;;
15202;SDS011;7702;51.046;5.184;2022-12-18T01:05:01;39.23;;;20.20;;
15202;SDS011;7702;51.046;5.184;2022-12-18T01:07:26;53.00;;;20.60;;
15202;SDS011;7702;51.046;5.184;2022-12-18T01:09:52;42.97;;;21.50;;
15202;SDS011;7702;51.046;5.184;2022-12-18T01:12:19;44.93;;;21.90;;
15202;SDS011;7702;51.046;5.184;2022-12-18T01:14:44;42.40;;;18.73;;
15202;SDS011;7702;51.046;5.184;2022-12-18T01:17:10;44.27;;;22.17;;
15202;SDS011;7702;51.046;5.184;2022-12-18T01:19:36;40.03;;;20.97;;
15202;SDS011;7702;51.046;5.184;2022-12-18T01:22:02;42.10;;;19.90;;
15202;SDS011;7702;51.046;5.184;2022-12-18T01:24:28;36.67;;;19.70;;
15202;SDS011;7702;51.046;5.184;2022-12-18T01:26:54;37.93;;;19.80;;
15202;SDS011;7702;51.046;5.184;2022-12-18T01:29:20;36.83;;;19.77;;
15202;SDS011;7702;51.046;5.184;2022-12-18T01:31:46;38.23;;;18.93;;
15202;SDS011;7702;51.046;5.184;2022-12-18T01:34:11;39.47;;;19.33;;
15202;SDS011;7702;51.046;5.184;2022-12-18T01:36:39;49.47;;;20.73;;
15202;SDS011;7702;51.046;5.184;2022-12-18T01:39:10;43.77;;;19.77;;
15202;SDS011;7702;51.046;5.184;2022-12-18T01:41:37;38.00;;;19.87;;
15202;SDS011;7702;51.046;5.184;2022-12-18T01:50:02;37.50;;;17.87;;
15202;SDS011;7702;51.046;5.184;2022-12-18T01:52:37;36.83;;;18.57;;
15202;SDS011;7702;51.046;5.184;2022-12-18T01:55:06;36.33;;;18.37;;
15202;SDS011;7702;51.046;5.184;2022-12-18T01:57:32;36.43;;;19.13;;
15202;SDS011;7702;51.046;5.184;2022-12-18T01:59:59;44.07;;;20.10;;
15202;SDS011;7702;51.046;5.184;2022-12-18T02:02:28;29.43;;;17.87;;
15202;SDS011;7702;51.046;5.184;2022-12-18T02:04:55;36.37;;;18.00;;
15202;SDS011;7702;51.046;5.184;2022-12-18T02:10:27;37.03;;;16.93;;
15202;SDS011;7702;51.046;5.184;2022-12-18T02:13:02;29.00;;;16.13;;
15202;SDS011;7702;51.046;5.184;2022-12-18T02:15:39;38.27;;;18.20;;
15202;SDS011;7702;51.046;5.184;2022-12-18T02:18:14;33.03;;;15.53;;
15202;SDS011;7702;51.046;5.184;2022-12-18T02:20:49;28.10;;;15.67;;
15202;SDS011;7702;51.046;5.184;2022-12-18T02:28:37;27.00;;;15.10;;
15202;SDS011;7702;51.046;5.184;2022-12-18T02:31:36;32.23;;;16.73;;
15202;SDS011;7702;51.046;5.184;2022-12-18T02:34:08;33.57;;;16.47;;
15202;SDS011;7702;51.046;5.184;2022-12-18T02:36:36;35.77;;;17.13;;
15202;SDS011;7702;51.046;5.184;2022-12-18T02:39:05;32.83;;;17.37;;
15202;SDS011;7702;51.046;5.184;2022-12-18T02:41:33;36.20;;;17.70;;
15202;SDS011;7702;51.046;5.184;2022-12-18T02:44:06;35.20;;;17.93;;
15202;SDS011;7702;51.046;5.184;2022-12-18T02:46:38;32.63;;;16.80;;
15202;SDS011;7702;51.046;5.184;2022-12-18T02:54:53;32.80;;;16.73;;
15202;SDS011;7702;51.046;5.184;2022-12-18T03:00:11;34.10;;;17.80;;
15202;SDS011;7702;51.046;5.184;2022-12-18T03:05:28;30.30;;;17.00;;
15202;SDS011;7702;51.046;5.184;2022-12-18T03:08:06;37.23;;;16.77;;
15202;SDS011;7702;51.046;5.184;2022-12-18T03:10:38;28.40;;;16.70;;
15202;SDS011;7702;51.046;5.184;2022-12-18T03:13:13;27.40;;;14.73;;
15202;SDS011;7702;51.046;5.184;2022-12-18T03:15:47;26.47;;;14.50;;
15202;SDS011;7702;51.046;5.184;2022-12-18T03:18:20;31.33;;;14.60;;
15202;SDS011;7702;51.046;5.184;2022-12-18T03:20:47;30.60;;;15.27;;
15202;SDS011;7702;51.046;5.184;2022-12-18T03:23:16;35.10;;;14.80;;
15202;SDS011;7702;51.046;5.184;2022-12-18T03:25:45;22.57;;;14.33;;
15202;SDS011;7702;51.046;5.184;2022-12-18T03:28:16;28.20;;;15.80;;
15202;SDS011;7702;51.046;5.184;2022-12-18T03:30:46;27.53;;;14.43;;
15202;SDS011;7702;51.046;5.184;2022-12-18T03:35:44;28.93;;;14.00;;
15202;SDS011;7702;51.046;5.184;2022-12-18T03:38:11;30.60;;;16.20;;
15202;SDS011;7702;51.046;5.184;2022-12-18T03:40:45;28.67;;;14.83;;
15202;SDS011;7702;51.046;5.184;2022-12-18T03:43:43;28.13;;;14.23;;
15202;SDS011;7702;51.046;5.184;2022-12-18T03:48:52;30.27;;;15.17;;
15202;SDS011;7702;51.046;5.184;2022-12-18T03:51:28;28.77;;;15.47;;
15202;SDS011;7702;51.046;5.184;2022-12-18T03:54:00;19.73;;;12.93;;
15202;SDS011;7702;51.046;5.184;2022-12-18T03:56:29;25.73;;;13.83;;
15202;SDS011;7702;51.046;5.184;2022-12-18T03:58:58;22.07;;;12.70;;
15202;SDS011;7702;51.046;5.184;2022-12-18T04:01:28;27.50;;;13.67;;
15202;SDS011;7702;51.046;5.184;2022-12-18T04:04:16;25.00;;;12.17;;
15202;SDS011;7702;51.046;5.184;2022-12-18T04:06:44;23.40;;;13.80;;
15202;SDS011;7702;51.046;5.184;2022-12-18T04:09:13;28.63;;;13.70;;
15202;SDS011;7702;51.046;5.184;2022-12-18T04:11:40;26.87;;;13.47;;
15202;SDS011;7702;51.046;5.184;2022-12-18T04:14:08;28.43;;;15.20;;
15202;SDS011;7702;51.046;5.184;2022-12-18T04:16:34;30.27;;;14.60;;
15202;SDS011;7702;51.046;5.184;2022-12-18T04:19:00;25.77;;;13.03;;
15202;SDS011;7702;51.046;5.184;2022-12-18T04:21:25;28.60;;;14.73;;
15202;SDS011;7702;51.046;5.184;2022-12-18T04:23:51;25.83;;;14.80;;
15202;SDS011;7702;51.046;5.184;2022-12-18T04:26:17;33.57;;;15.33;;
15202;SDS011;7702;51.046;5.184;2022-12-18T04:28:42;27.57;;;14.07;;
15202;SDS011;7702;51.046;5.184;2022-12-18T04:31:09;30.20;;;16.27;;
15202;SDS011;7702;51.046;5.184;2022-12-18T04:33:34;27.50;;;14.03;;
15202;SDS011;7702;51.046;5.184;2022-12-18T04:36:00;26.03;;;14.00;;
15202;SDS011;7702;51.046;5.184;2022-12-18T04:38:26;31.60;;;14.63;;
15202;SDS011;7702;51.046;5.184;2022-12-18T04:40:52;27.30;;;14.73;;
15202;SDS011;7702;51.046;5.184;2022-12-18T04:43:17;27.67;;;14.17;;
15202;SDS011;7702;51.046;5.184;2022-12-18T04:45:43;25.33;;;12.57;;
15202;SDS011;7702;51.046;5.184;2022-12-18T04:48:09;26.63;;;13.73;;
15202;SDS011;7702;51.046;5.184;2022-12-18T04:50:35;26.33;;;13.57;;
15202;SDS011;7702;51.046;5.184;2022-12-18T04:53:01;23.57;;;12.60;;
15202;SDS011;7702;51.046;5.184;2022-12-18T04:55:27;23.37;;;13.13;;
15202;SDS011;7702;51.046;5.184;2022-12-18T04:57:53;29.67;;;14.77;;
15202;SDS011;7702;51.046;5.184;2022-12-18T05:00:19;21.97;;;12.60;;
15202;SDS011;7702;51.046;5.184;2022-12-18T05:02:45;25.03;;;12.73;;
15202;SDS011;7702;51.046;5.184;2022-12-18T05:05:10;24.77;;;12.53;;
15202;SDS011;7702;51.046;5.184;2022-12-18T05:07:36;25.87;;;14.03;;
15202;SDS011;7702;51.046;5.184;2022-12-18T05:10:08;32.67;;;14.53;;
15202;SDS011;7702;51.046;5.184;2022-12-18T05:12:34;28.80;;;13.93;;
15202;SDS011;7702;51.046;5.184;2022-12-18T05:15:20;26.70;;;13.40;;
15202;SDS011;7702;51.046;5.184;2022-12-18T05:17:45;25.77;;;14.17;;
15202;SDS011;7702;51.046;5.184;2022-12-18T05:20:11;28.13;;;14.97;;
15202;SDS011;7702;51.046;5.184;2022-12-18T05:22:37;27.53;;;13.87;;
15202;SDS011;7702;51.046;5.184;2022-12-18T05:25:02;27.53;;;14.30;;
15202;SDS011;7702;51.046;5.184;2022-12-18T05:27:29;25.27;;;13.37;;
15202;SDS011;7702;51.046;5.184;2022-12-18T05:29:55;33.70;;;14.67;;
15202;SDS011;7702;51.046;5.184;2022-12-18T05:32:21;27.43;;;14.20;;
15202;SDS011;7702;51.046;5.184;2022-12-18T05:34:47;28.80;;;15.90;;
15202;SDS011;7702;51.046;5.184;2022-12-18T05:37:12;24.80;;;13.47;;
15202;SDS011;7702;51.046;5.184;2022-12-18T05:39:38;27.57;;;14.43;;
15202;SDS011;7702;51.046;5.184;2022-12-18T05:42:04;30.27;;;16.20;;
15202;SDS011;7702;51.046;5.184;2022-12-18T05:44:29;31.90;;;15.00;;
15202;SDS011;7702;51.046;5.184;2022-12-18T05:46:55;30.60;;;14.33;;
15202;SDS011;7702;51.046;5.184;2022-12-18T05:49:21;27.73;;;14.80;;
15202;SDS011;7702;51.046;5.184;2022-12-18T05:51:47;26.47;;;15.00;;
15202;SDS011;7702;51.046;5.184;2022-12-18T05:54:12;25.17;;;13.30;;
15202;SDS011;7702;51.046;5.184;2022-12-18T05:56:38;25.83;;;13.60;;
15202;SDS011;7702;51.046;5.184;2022-12-18T05:59:04;27.57;;;13.40;;
15202;SDS011;7702;51.046;5.184;2022-12-18T06:01:29;22.17;;;13.00;;
15202;SDS011;7702;51.046;5.184;2022-12-18T06:03:55;27.93;;;13.33;;
15202;SDS011;7702;51.046;5.184;2022-12-18T06:06:22;25.30;;;13.80;;
15202;SDS011;7702;51.046;5.184;2022-12-18T06:08:50;24.40;;;13.17;;
15202;SDS011;7702;51.046;5.184;2022-12-18T06:11:18;25.93;;;13.57;;
15202;SDS011;7702;51.046;5.184;2022-12-18T06:13:45;24.63;;;12.77;;
15202;SDS011;7702;51.046;5.184;2022-12-18T06:16:11;23.73;;;14.20;;
15202;SDS011;7702;51.046;5.184;2022-12-18T06:18:37;23.17;;;12.20;;
15202;SDS011;7702;51.046;5.184;2022-12-18T06:21:03;23.30;;;13.17;;
15202;SDS011;7702;51.046;5.184;2022-12-18T06:23:29;24.40;;;13.23;;
15202;SDS011;7702;51.046;5.184;2022-12-18T06:25:55;21.30;;;11.53;;
15202;SDS011;7702;51.046;5.184;2022-12-18T06:28:21;16.67;;;10.53;;
15202;SDS011;7702;51.046;5.184;2022-12-18T06:30:47;24.83;;;11.37;;
15202;SDS011;7702;51.046;5.184;2022-12-18T06:33:14;17.97;;;11.13;;
15202;SDS011;7702;51.046;5.184;2022-12-18T06:35:40;21.20;;;11.90;;
15202;SDS011;7702;51.046;5.184;2022-12-18T06:38:07;20.17;;;10.37;;
15202;SDS011;7702;51.046;5.184;2022-12-18T06:40:32;20.40;;;11.10;;
15202;SDS011;7702;51.046;5.184;2022-12-18T06:42:58;22.03;;;11.23;;
15202;SDS011;7702;51.046;5.184;2022-12-18T06:45:24;21.63;;;11.67;;
15202;SDS011;7702;51.046;5.184;2022-12-18T06:47:50;24.57;;;11.03;;
15202;SDS011;7702;51.046;5.184;2022-12-18T06:50:16;18.23;;;10.20;;
15202;SDS011;7702;51.046;5.184;2022-12-18T06:52:42;18.90;;;9.83;;
15202;SDS011;7702;51.046;5.184;2022-12-18T06:55:09;17.47;;;10.00;;
15202;SDS011;7702;51.046;5.184;2022-12-18T06:57:36;20.07;;;10.27;;
15202;SDS011;7702;51.046;5.184;2022-12-18T07:00:02;22.40;;;11.73;;
15202;SDS011;7702;51.046;5.184;2022-12-18T07:02:29;19.33;;;11.53;;
15202;SDS011;7702;51.046;5.184;2022-12-18T07:04:55;21.57;;;11.40;;
15202;SDS011;7702;51.046;5.184;2022-12-18T07:07:21;21.30;;;9.87;;
15202;SDS011;7702;51.046;5.184;2022-12-18T07:09:46;25.67;;;11.27;;
15202;SDS011;7702;51.046;5.184;2022-12-18T07:12:14;22.53;;;10.77;;
15202;SDS011;7702;51.046;5.184;2022-12-18T07:14:40;14.77;;;8.90;;
15202;SDS011;7702;51.046;5.184;2022-12-18T07:17:05;16.63;;;10.27;;
15202;SDS011;7702;51.046;5.184;2022-12-18T07:19:31;21.93;;;9.63;;
15202;SDS011;7702;51.046;5.184;2022-12-18T07:21:57;14.83;;;8.63;;
15202;SDS011;7702;51.046;5.184;2022-12-18T07:24:23;15.83;;;9.00;;
15202;SDS011;7702;51.046;5.184;2022-12-18T07:26:48;19.30;;;9.07;;
15202;SDS011;7702;51.046;5.184;2022-12-18T07:29:15;15.60;;;9.50;;
15202;SDS011;7702;51.046;5.184;2022-12-18T07:31:40;13.87;;;8.93;;
15202;SDS011;7702;51.046;5.184;2022-12-18T07:34:09;18.73;;;10.03;;
15202;SDS011;7702;51.046;5.184;2022-12-18T07:36:36;14.40;;;9.17;;
15202;SDS011;7702;51.046;5.184;2022-12-18T07:39:02;17.00;;;10.27;;
15202;SDS011;7702;51.046;5.184;2022-12-18T07:41:28;15.90;;;9.47;;
15202;SDS011;7702;51.046;5.184;2022-12-18T07:43:54;17.50;;;9.37;;
15202;SDS011;7702;51.046;5.184;2022-12-18T07:46:20;18.40;;;10.07;;
15202;SDS011;7702;51.046;5.184;2022-12-18T07:48:45;16.13;;;9.90;;
15202;SDS011;7702;51.046;5.184;2022-12-18T07:51:12;12.67;;;8.70;;
15202;SDS011;7702;51.046;5.184;2022-12-18T07:53:38;19.10;;;9.63;;
15202;SDS011;7702;51.046;5.184;2022-12-18T07:56:05;18.40;;;9.43;;
15202;SDS011;7702;51.046;5.184;2022-12-18T07:58:32;17.43;;;9.07;;
15202;SDS011;7702;51.046;5.184;2022-12-18T08:01:17;15.60;;;9.03;;
15202;SDS011;7702;51.046;5.184;2022-12-18T08:03:42;14.53;;;7.30;;
15202;SDS011;7702;51.046;5.184;2022-12-18T08:06:08;16.63;;;8.03;;
15202;SDS011;7702;51.046;5.184;2022-12-18T08:08:35;20.40;;;10.30;;
15202;SDS011;7702;51.046;5.184;2022-12-18T08:11:01;14.03;;;9.13;;
15202;SDS011;7702;51.046;5.184;2022-12-18T08:13:27;19.03;;;10.07;;
15202;SDS011;7702;51.046;5.184;2022-12-18T08:16:00;16.77;;;8.53;;
15202;SDS011;7702;51.046;5.184;2022-12-18T08:18:32;16.07;;;8.83;;
15202;SDS011;7702;51.046;5.184;2022-12-18T08:21:02;12.70;;;8.87;;
15202;SDS011;7702;51.046;5.184;2022-12-18T08:23:37;14.00;;;9.17;;
15202;SDS011;7702;51.046;5.184;2022-12-18T08:26:03;15.23;;;10.10;;
15202;SDS011;7702;51.046;5.184;2022-12-18T08:28:29;13.87;;;9.33;;
15202;SDS011;7702;51.046;5.184;2022-12-18T08:30:54;17.90;;;9.90;;
15202;SDS011;7702;51.046;5.184;2022-12-18T08:33:20;15.70;;;10.60;;
15202;SDS011;7702;51.046;5.184;2022-12-18T08:35:46;16.93;;;9.53;;
15202;SDS011;7702;51.046;5.184;2022-12-18T08:38:11;16.23;;;10.03;;
15202;SDS011;7702;51.046;5.184;2022-12-18T08:40:37;16.37;;;9.83;;
15202;SDS011;7702;51.046;5.184;2022-12-18T08:43:03;15.57;;;10.47;;
15202;SDS011;7702;51.046;5.184;2022-12-18T08:45:47;14.53;;;10.23;;
15202;SDS011;7702;51.046;5.184;2022-12-18T08:48:13;21.07;;;10.47;;
15202;SDS011;7702;51.046;5.184;2022-12-18T08:50:39;20.20;;;11.50;;
15202;SDS011;7702;51.046;5.184;2022-12-18T08:53:05;17.33;;;10.10;;
15202;SDS011;7702;51.046;5.184;2022-12-18T08:55:31;16.20;;;9.93;;
15202;SDS011;7702;51.046;5.184;2022-12-18T08:57:57;16.77;;;10.30;;
15202;SDS011;7702;51.046;5.184;2022-12-18T09:00:22;17.47;;;10.50;;
15202;SDS011;7702;51.046;5.184;2022-12-18T09:02:48;14.50;;;9.30;;
15202;SDS011;7702;51.046;5.184;2022-12-18T09:05:14;14.93;;;10.40;;
15202;SDS011;7702;51.046;5.184;2022-12-18T09:07:40;17.03;;;10.00;;
15202;SDS011;7702;51.046;5.184;2022-12-18T09:10:06;19.93;;;10.90;;
15202;SDS011;7702;51.046;5.184;2022-12-18T09:12:32;18.47;;;11.13;;
15202;SDS011;7702;51.046;5.184;2022-12-18T09:14:58;18.23;;;11.13;;
15202;SDS011;7702;51.046;5.184;2022-12-18T09:17:24;18.97;;;11.50;;
15202;SDS011;7702;51.046;5.184;2022-12-18T09:19:50;21.40;;;12.00;;
15202;SDS011;7702;51.046;5.184;2022-12-18T09:22:16;20.30;;;11.80;;
15202;SDS011;7702;51.046;5.184;2022-12-18T09:24:42;20.30;;;11.87;;
15202;SDS011;7702;51.046;5.184;2022-12-18T09:27:07;18.10;;;11.27;;
15202;SDS011;7702;51.046;5.184;2022-12-18T09:29:33;19.03;;;10.57;;
15202;SDS011;7702;51.046;5.184;2022-12-18T09:31:59;18.63;;;11.67;;
15202;SDS011;7702;51.046;5.184;2022-12-18T09:34:25;20.50;;;11.33;;
15202;SDS011;7702;51.046;5.184;2022-12-18T09:36:51;20.70;;;11.47;;
15202;SDS011;7702;51.046;5.184;2022-12-18T09:39:16;16.90;;;10.83;;
15202;SDS011;7702;51.046;5.184;2022-12-18T09:41:46;23.97;;;11.83;;
15202;SDS011;7702;51.046;5.184;2022-12-18T09:49:21;17.87;;;11.63;;
15202;SDS011;7702;51.046;5.184;2022-12-18T09:51:50;18.53;;;10.70;;
15202;SDS011;7702;51.046;5.184;2022-12-18T09:54:25;20.73;;;11.13;;
15202;SDS011;7702;51.046;5.184;2022-12-18T09:57:04;16.37;;;11.43;;
15202;SDS011;7702;51.046;5.184;2022-12-18T09:59:37;22.87;;;12.27;;
15202;SDS011;7702;51.046;5.184;2022-12-18T10:04:44;15.40;;;11.30;;
15202;SDS011;7702;51.046;5.184;2022-12-18T10:15:54;16.87;;;11.17;;
15202;SDS011;7702;51.046;5.184;2022-12-18T10:18:54;15.67;;;9.87;;
15202;SDS011;7702;51.046;5.184;2022-12-18T10:24:30;16.80;;;10.80;;
15202;SDS011;7702;51.046;5.184;2022-12-18T10:27:14;16.90;;;11.03;;
15202;SDS011;7702;51.046;5.184;2022-12-18T10:29:42;15.47;;;11.43;;
15202;SDS011;7702;51.046;5.184;2022-12-18T10:32:30;15.67;;;10.57;;
15202;SDS011;7702;51.046;5.184;2022-12-18T10:34:56;19.13;;;12.03;;
15202;SDS011;7702;51.046;5.184;2022-12-18T10:37:24;18.07;;;11.57;;
15202;SDS011;7702;51.046;5.184;2022-12-18T10:42:41;21.93;;;12.50;;
15202;SDS011;7702;51.046;5.184;2022-12-18T10:45:15;19.00;;;12.77;;
15202;SDS011;7702;51.046;5.184;2022-12-18T10:47:49;18.33;;;12.27;;
15202;SDS011;7702;51.046;5.184;2022-12-18T10:50:19;17.23;;;12.43;;
15202;SDS011;7702;51.046;5.184;2022-12-18T10:52:57;17.67;;;11.37;;
15202;SDS011;7702;51.046;5.184;2022-12-18T10:55:26;20.40;;;12.97;;
15202;SDS011;7702;51.046;5.184;2022-12-18T11:03:32;18.33;;;11.90;;
15202;SDS011;7702;51.046;5.184;2022-12-18T11:06:13;22.27;;;12.93;;
15202;SDS011;7702;51.046;5.184;2022-12-18T11:08:42;21.37;;;13.00;;
15202;SDS011;7702;51.046;5.184;2022-12-18T11:11:20;20.70;;;13.43;;
15202;SDS011;7702;51.046;5.184;2022-12-18T11:16:42;20.00;;;12.30;;
15202;SDS011;7702;51.046;5.184;2022-12-18T11:19:32;21.63;;;13.13;;
15202;SDS011;7702;51.046;5.184;2022-12-18T11:21:58;18.80;;;12.60;;
15202;SDS011;7702;51.046;5.184;2022-12-18T11:24:27;19.73;;;11.87;;
15202;SDS011;7702;51.046;5.184;2022-12-18T11:27:03;19.73;;;12.67;;
15202;SDS011;7702;51.046;5.184;2022-12-18T11:29:35;20.77;;;12.10;;
15202;SDS011;7702;51.046;5.184;2022-12-18T11:37:47;17.47;;;11.97;;
15202;SDS011;7702;51.046;5.184;2022-12-18T11:40:22;18.97;;;11.60;;
15202;SDS011;7702;51.046;5.184;2022-12-18T11:42:58;19.87;;;11.97;;
15202;SDS011;7702;51.046;5.184;2022-12-18T11:45:28;17.43;;;12.60;;
15202;SDS011;7702;51.046;5.184;2022-12-18T11:53:09;18.87;;;13.10;;
15202;SDS011;7702;51.046;5.184;2022-12-18T12:04:01;17.07;;;11.90;;
15202;SDS011;7702;51.046;5.184;2022-12-18T12:09:29;21.20;;;12.90;;
15202;SDS011;7702;51.046;5.184;2022-12-18T12:17:11;23.07;;;13.67;;
15202;SDS011;7702;51.046;5.184;2022-12-18T12:39:03;16.70;;;11.20;;
15202;SDS011;7702;51.046;5.184;2022-12-18T12:41:34;18.47;;;11.93;;
15202;SDS011;7702;51.046;5.184;2022-12-18T12:44:39;19.67;;;12.53;;
15202;SDS011;7702;51.046;5.184;2022-12-18T12:47:12;16.87;;;12.73;;
15202;SDS011;7702;51.046;5.184;2022-12-18T12:49:42;18.13;;;12.33;;
15202;SDS011;7702;51.046;5.184;2022-12-18T12:52:14;17.63;;;13.00;;
15202;SDS011;7702;51.046;5.184;2022-12-18T12:54:46;18.60;;;12.70;;
15202;SDS011;7702;51.046;5.184;2022-12-18T12:57:24;19.67;;;13.27;;
15202;SDS011;7702;51.046;5.184;2022-12-18T13:08:22;19.77;;;13.50;;
15202;SDS011;7702;51.046;5.184;2022-12-18T13:15:28;19.10;;;12.10;;
15202;SDS011;7702;51.046;5.184;2022-12-18T13:20:42;17.23;;;12.60;;
15202;SDS011;7702;51.046;5.184;2022-12-18T13:25:48;20.00;;;13.57;;
15202;SDS011;7702;51.046;5.184;2022-12-18T13:30:57;18.23;;;13.57;;
15202;SDS011;7702;51.046;5.184;2022-12-18T13:33:34;19.50;;;13.23;;
15202;SDS011;7702;51.046;5.184;2022-12-18T13:38:47;20.80;;;12.60;;
15202;SDS011;7702;51.046;5.184;2022-12-18T13:41:32;16.73;;;13.00;;
15202;SDS011;7702;51.046;5.184;2022-12-18T13:47:02;25.07;;;14.43;;
15202;SDS011;7702;51.046;5.184;2022-12-18T13:49:43;20.47;;;14.80;;
15202;SDS011;7702;51.046;5.184;2022-12-18T13:52:17;24.57;;;15.90;;
15202;SDS011;7702;51.046;5.184;2022-12-18T13:54:50;20.50;;;13.47;;
15202;SDS011;7702;51.046;5.184;2022-12-18T13:59:58;23.47;;;15.07;;
15202;SDS011;7702;51.046;5.184;2022-12-18T14:02:44;25.13;;;15.03;;
15202;SDS011;7702;51.046;5.184;2022-12-18T14:08:10;21.13;;;14.37;;
15202;SDS011;7702;51.046;5.184;2022-12-18T14:10:42;20.10;;;14.20;;
15202;SDS011;7702;51.046;5.184;2022-12-18T14:13:11;21.43;;;14.33;;
15202;SDS011;7702;51.046;5.184;2022-12-18T14:15:46;24.33;;;15.90;;
15202;SDS011;7702;51.046;5.184;2022-12-18T14:20:51;23.17;;;13.90;;
15202;SDS011;7702;51.046;5.184;2022-12-18T14:28:48;21.83;;;14.53;;
15202;SDS011;7702;51.046;5.184;2022-12-18T14:31:50;18.83;;;13.50;;
15202;SDS011;7702;51.046;5.184;2022-12-18T14:34:08;22.23;;;14.27;;
15202;SDS011;7702;51.046;5.184;2022-12-18T14:36:40;19.90;;;14.23;;
15202;SDS011;7702;51.046;5.184;2022-12-18T14:39:16;19.30;;;13.43;;
15202;SDS011;7702;51.046;5.184;2022-12-18T14:41:43;19.57;;;13.80;;
15202;SDS011;7702;51.046;5.184;2022-12-18T14:44:10;26.47;;;14.93;;
15202;SDS011;7702;51.046;5.184;2022-12-18T14:51:57;22.93;;;14.70;;
15202;SDS011;7702;51.046;5.184;2022-12-18T14:54:25;24.17;;;15.37;;
15202;SDS011;7702;51.046;5.184;2022-12-18T14:57:06;21.30;;;14.17;;
15202;SDS011;7702;51.046;5.184;2022-12-18T15:00:10;20.00;;;13.97;;
15202;SDS011;7702;51.046;5.184;2022-12-18T15:02:41;21.23;;;13.90;;
15202;SDS011;7702;51.046;5.184;2022-12-18T15:07:51;22.00;;;14.60;;
15202;SDS011;7702;51.046;5.184;2022-12-18T15:10:22;21.03;;;13.43;;
15202;SDS011;7702;51.046;5.184;2022-12-18T15:18:18;19.67;;;14.20;;
15202;SDS011;7702;51.046;5.184;2022-12-18T15:23:24;20.33;;;13.73;;
15202;SDS011;7702;51.046;5.184;2022-12-18T15:26:14;23.50;;;15.10;;
15202;SDS011;7702;51.046;5.184;2022-12-18T15:28:50;20.57;;;14.03;;
15202;SDS011;7702;51.046;5.184;2022-12-18T15:33:45;24.13;;;15.03;;
15202;SDS011;7702;51.046;5.184;2022-12-18T15:36:28;19.50;;;14.03;;
15202;SDS011;7702;51.046;5.184;2022-12-18T15:38:55;20.57;;;13.53;;
15202;SDS011;7702;51.046;5.184;2022-12-18T15:41:25;21.83;;;14.07;;
15202;SDS011;7702;51.046;5.184;2022-12-18T15:43:51;21.47;;;14.67;;
15202;SDS011;7702;51.046;5.184;2022-12-18T15:46:19;20.70;;;13.43;;
15202;SDS011;7702;51.046;5.184;2022-12-18T15:51:29;21.77;;;13.93;;
15202;SDS011;7702;51.046;5.184;2022-12-18T15:53:58;20.73;;;13.87;;
15202;SDS011;7702;51.046;5.184;2022-12-18T15:56:26;19.13;;;13.13;;
15202;SDS011;7702;51.046;5.184;2022-12-18T15:59:14;20.03;;;13.47;;
15202;SDS011;7702;51.046;5.184;2022-12-18T16:01:42;19.10;;;13.20;;
15202;SDS011;7702;51.046;5.184;2022-12-18T16:04:12;21.80;;;13.30;;
15202;SDS011;7702;51.046;5.184;2022-12-18T16:06:39;21.10;;;14.00;;
15202;SDS011;7702;51.046;5.184;2022-12-18T16:09:06;18.20;;;13.87;;
15202;SDS011;7702;51.046;5.184;2022-12-18T16:11:32;22.83;;;14.07;;
15202;SDS011;7702;51.046;5.184;2022-12-18T16:14:04;23.30;;;14.23;;
15202;SDS011;7702;51.046;5.184;2022-12-18T16:16:30;20.13;;;14.67;;
15202;SDS011;7702;51.046;5.184;2022-12-18T16:18:56;21.67;;;14.20;;
15202;SDS011;7702;51.046;5.184;2022-12-18T16:21:22;21.50;;;14.10;;
15202;SDS011;7702;51.046;5.184;2022-12-18T16:23:47;21.53;;;13.17;;
15202;SDS011;7702;51.046;5.184;2022-12-18T16:26:13;21.13;;;13.23;;
15202;SDS011;7702;51.046;5.184;2022-12-18T16:28:39;20.23;;;13.33;;
15202;SDS011;7702;51.046;5.184;2022-12-18T16:31:06;19.27;;;13.53;;
15202;SDS011;7702;51.046;5.184;2022-12-18T16:33:33;23.20;;;12.67;;
15202;SDS011;7702;51.046;5.184;2022-12-18T16:35:58;24.20;;;14.17;;
15202;SDS011;7702;51.046;5.184;2022-12-18T16:38:24;25.20;;;14.53;;
15202;SDS011;7702;51.046;5.184;2022-12-18T16:40:50;21.17;;;13.00;;
15202;SDS011;7702;51.046;5.184;2022-12-18T16:43:34;20.70;;;14.40;;
15202;SDS011;7702;51.046;5.184;2022-12-18T16:46:00;22.13;;;13.97;;
15202;SDS011;7702;51.046;5.184;2022-12-18T16:48:26;23.17;;;13.63;;
15202;SDS011;7702;51.046;5.184;2022-12-18T16:50:58;22.07;;;12.83;;
15202;SDS011;7702;51.046;5.184;2022-12-18T16:53:26;26.63;;;14.67;;
15202;SDS011;7702;51.046;5.184;2022-12-18T16:55:54;28.87;;;15.23;;
15202;SDS011;7702;51.046;5.184;2022-12-18T16:58:20;23.77;;;14.10;;
15202;SDS011;7702;51.046;5.184;2022-12-18T17:00:46;20.57;;;14.30;;
15202;SDS011;7702;51.046;5.184;2022-12-18T17:03:12;23.80;;;14.03;;
15202;SDS011;7702;51.046;5.184;2022-12-18T17:05:37;21.17;;;13.73;;
15202;SDS011;7702;51.046;5.184;2022-12-18T17:08:03;22.17;;;13.37;;
15202;SDS011;7702;51.046;5.184;2022-12-18T17:10:30;19.00;;;14.30;;
15202;SDS011;7702;51.046;5.184;2022-12-18T17:12:56;22.50;;;14.10;;
15202;SDS011;7702;51.046;5.184;2022-12-18T17:15:22;23.90;;;14.63;;
15202;SDS011;7702;51.046;5.184;2022-12-18T17:17:47;20.90;;;13.70;;
15202;SDS011;7702;51.046;5.184;2022-12-18T17:20:13;22.07;;;15.10;;
15202;SDS011;7702;51.046;5.184;2022-12-18T17:22:39;22.23;;;14.50;;
15202;SDS011;7702;51.046;5.184;2022-12-18T17:25:05;22.37;;;14.83;;
15202;SDS011;7702;51.046;5.184;2022-12-18T17:27:31;23.70;;;14.60;;
15202;SDS011;7702;51.046;5.184;2022-12-18T17:29:57;25.07;;;15.23;;
15202;SDS011;7702;51.046;5.184;2022-12-18T17:32:23;23.17;;;14.77;;
15202;SDS011;7702;51.046;5.184;2022-12-18T17:34:49;30.53;;;17.20;;
15202;SDS011;7702;51.046;5.184;2022-12-18T17:37:14;25.50;;;15.50;;